createdAt,value
2022-10-13T00:00:38.415Z,99.90
2022-10-13T00:03:41.920Z,99.90
2022-10-13T00:06:43.789Z,99.90
2022-10-13T00:09:45.604Z,99.90
2022-10-13T00:12:47.532Z,99.90
2022-10-13T00:15:49.561Z,99.90
2022-10-13T00:18:51.567Z,99.90
2022-10-13T00:21:53.390Z,99.90
2022-10-13T00:24:56.767Z,99.90
2022-10-13T00:27:58.577Z,99.90
2022-10-13T00:31:00.761Z,99.90
2022-10-13T00:34:02.681Z,99.90
2022-10-13T00:37:05.736Z,99.90
2022-10-13T00:40:08.310Z,99.90
2022-10-13T00:43:26.771Z,99.90
2022-10-13T00:46:37.850Z,99.90
2022-10-13T00:49:39.793Z,99.90
2022-10-13T00:52:42.818Z,99.90
2022-10-13T00:55:46.933Z,99.90
2022-10-13T00:58:49.864Z,99.90
2022-10-13T01:01:52.347Z,99.90
2022-10-13T01:04:55.033Z,99.90
2022-10-13T01:07:57.800Z,99.90
2022-10-13T01:11:05.457Z,99.90
2022-10-13T01:14:34.298Z,99.90
2022-10-13T01:17:42.104Z,99.90
2022-10-13T01:21:16.340Z,99.90
2022-10-13T01:24:38.838Z,99.90
2022-10-13T01:28:12.730Z,99.90
2022-10-13T01:31:20.213Z,99.90
2022-10-13T01:34:26.801Z,99.90
2022-10-13T01:37:34.061Z,99.90
2022-10-13T01:41:02.568Z,99.90
2022-10-13T01:44:26.032Z,99.90
2022-10-13T01:47:31.416Z,99.90
2022-10-13T01:50:36.170Z,99.90
2022-10-13T01:53:38.634Z,99.90
2022-10-13T01:56:40.476Z,99.90
2022-10-13T01:59:42.592Z,99.90
2022-10-13T02:03:08.841Z,99.90
2022-10-13T02:06:26.204Z,99.90
2022-10-13T02:09:54.432Z,99.90
2022-10-13T02:13:07.988Z,99.90
2022-10-13T02:16:11.124Z,99.90
2022-10-13T02:19:16.055Z,99.90
2022-10-13T02:22:18.637Z,99.90
2022-10-13T02:25:20.775Z,99.90
2022-10-13T02:28:22.974Z,99.90
2022-10-13T02:31:24.984Z,99.90
2022-10-13T02:34:27.008Z,99.90
2022-10-13T02:37:28.937Z,99.90
2022-10-13T02:40:30.869Z,99.90
2022-10-13T02:43:34.011Z,99.90
2022-10-13T02:46:36.231Z,99.90
2022-10-13T02:49:38.075Z,99.90
2022-10-13T02:52:40.164Z,99.90
2022-10-13T02:55:42.053Z,99.90
2022-10-13T02:58:43.866Z,99.90
2022-10-13T03:01:45.799Z,99.90
2022-10-13T03:04:49.346Z,99.90
2022-10-13T03:07:52.732Z,99.90
2022-10-13T03:10:54.952Z,99.90
2022-10-13T03:13:56.892Z,99.90
2022-10-13T03:16:58.868Z,99.90
2022-10-13T03:20:00.727Z,99.90
2022-10-13T03:23:02.608Z,99.90
2022-10-13T03:26:04.654Z,99.90
2022-10-13T03:29:06.505Z,99.90
2022-10-13T03:32:08.539Z,99.90
2022-10-13T03:35:10.459Z,99.90
2022-10-13T03:38:12.345Z,99.90
2022-10-13T03:41:17.516Z,99.90
2022-10-13T03:44:19.931Z,99.90
2022-10-13T03:47:21.747Z,99.90
2022-10-13T03:50:23.612Z,99.90
2022-10-13T03:53:26.138Z,99.90
2022-10-13T03:56:28.764Z,99.90
2022-10-13T03:59:36.385Z,99.90
2022-10-13T04:02:38.768Z,99.90
2022-10-13T04:05:40.776Z,99.90
2022-10-13T04:08:42.800Z,99.90
2022-10-13T04:11:44.652Z,99.90
2022-10-13T04:14:46.529Z,99.90
2022-10-13T04:17:48.517Z,99.90
2022-10-13T04:20:50.379Z,99.90
2022-10-13T04:23:58.349Z,99.90
2022-10-13T04:27:00.224Z,99.90
2022-10-13T04:30:02.166Z,99.90
2022-10-13T04:33:04.159Z,99.90
2022-10-13T04:36:07.935Z,99.90
2022-10-13T04:39:09.879Z,99.90
2022-10-13T04:42:11.700Z,99.90
2022-10-13T04:45:13.570Z,99.90
2022-10-13T04:48:15.518Z,99.90
2022-10-13T04:51:20.587Z,99.90
2022-10-13T04:54:22.480Z,99.90
2022-10-13T04:57:24.380Z,99.90
2022-10-13T05:00:26.333Z,99.90
2022-10-13T05:03:28.289Z,99.90
2022-10-13T05:06:33.039Z,99.90
2022-10-13T05:09:34.906Z,99.90
2022-10-13T05:12:37.010Z,99.90
2022-10-13T05:15:39.575Z,99.90
2022-10-13T05:18:41.635Z,99.90
2022-10-13T05:21:43.534Z,99.90
2022-10-13T05:24:45.354Z,99.90
2022-10-13T05:27:47.373Z,99.90
2022-10-13T05:30:49.198Z,99.90
2022-10-13T05:33:52.645Z,99.90
2022-10-13T05:36:54.563Z,99.90
2022-10-13T05:39:56.430Z,99.90
2022-10-13T05:42:58.260Z,99.90
2022-10-13T05:46:01.365Z,99.90
2022-10-13T05:49:03.770Z,99.90
2022-10-13T05:52:09.584Z,99.90
2022-10-13T05:55:14.603Z,99.90
2022-10-13T05:58:17.204Z,99.90
2022-10-13T06:01:22.955Z,99.90
2022-10-13T06:04:31.596Z,99.90
2022-10-13T06:07:33.499Z,99.90
2022-10-13T06:10:37.143Z,99.90
2022-10-13T06:13:38.979Z,99.90
2022-10-13T06:16:41.535Z,99.90
2022-10-13T06:19:45.358Z,99.90
2022-10-13T06:22:48.584Z,99.90
2022-10-13T06:25:53.940Z,99.90
2022-10-13T06:28:59.470Z,99.90
2022-10-13T06:32:01.697Z,99.90
2022-10-13T06:35:03.862Z,99.90
2022-10-13T06:38:05.731Z,99.90
2022-10-13T06:41:07.679Z,99.90
2022-10-13T06:44:09.923Z,99.90
2022-10-13T06:47:11.925Z,99.90
2022-10-13T06:50:13.959Z,99.90
2022-10-13T06:53:16.035Z,99.90
2022-10-13T06:56:17.880Z,99.90
2022-10-13T06:59:19.951Z,99.90
2022-10-13T07:02:22.233Z,99.90
2022-10-13T07:05:24.443Z,99.90
2022-10-13T07:08:26.253Z,99.90
2022-10-13T07:11:28.121Z,99.90
2022-10-13T07:14:29.944Z,99.90
2022-10-13T07:17:31.806Z,99.90
2022-10-13T07:20:33.945Z,99.90
2022-10-13T07:23:35.820Z,99.90
2022-10-13T07:26:37.701Z,99.90
2022-10-13T07:29:39.645Z,99.90
2022-10-13T07:32:42.314Z,99.90
2022-10-13T07:35:44.291Z,99.90
2022-10-13T07:38:46.576Z,99.90
2022-10-13T07:41:51.201Z,99.90
2022-10-13T07:44:53.275Z,99.90
2022-10-13T07:47:55.845Z,99.90
2022-10-13T07:50:58.378Z,99.90
2022-10-13T07:54:00.235Z,99.90
2022-10-13T07:57:03.208Z,99.90
2022-10-13T08:00:06.468Z,99.90
2022-10-13T08:03:08.310Z,99.90
2022-10-13T08:06:10.807Z,99.90
2022-10-13T08:09:12.830Z,99.90
2022-10-13T08:12:14.922Z,99.90
2022-10-13T08:15:16.826Z,99.90
2022-10-13T08:18:18.727Z,99.90
2022-10-13T08:24:44.320Z,99.90
2022-10-13T08:27:56.873Z,99.90
2022-10-13T08:31:02.232Z,99.90
2022-10-13T08:34:04.436Z,99.90
2022-10-13T08:37:06.397Z,99.90
2022-10-13T08:40:14.824Z,99.90
2022-10-13T08:43:20.089Z,99.90
2022-10-13T08:46:48.975Z,99.90
2022-10-13T08:49:51.141Z,99.90
2022-10-13T08:53:02.991Z,99.90
2022-10-13T08:56:23.109Z,99.90
2022-10-13T08:59:25.102Z,99.90
2022-10-13T09:02:31.540Z,99.90
2022-10-13T09:05:51.897Z,99.90
2022-10-13T09:09:00.777Z,99.90
2022-10-13T09:12:02.765Z,99.90
2022-10-13T09:15:11.184Z,99.90
2022-10-13T09:18:14.101Z,99.90
2022-10-13T09:21:23.130Z,99.90
2022-10-13T09:24:26.873Z,99.90
2022-10-13T09:27:28.769Z,99.90
2022-10-13T09:30:41.480Z,99.90
2022-10-13T09:33:43.929Z,99.90
2022-10-13T09:37:05.305Z,99.90
2022-10-13T09:40:31.399Z,99.90
2022-10-13T09:43:37.720Z,99.90
2022-10-13T09:46:55.701Z,99.90
2022-10-13T09:50:16.868Z,99.90
2022-10-13T09:53:37.710Z,99.90
2022-10-13T09:56:49.298Z,99.90
2022-10-13T10:00:03.780Z,99.90
2022-10-13T10:03:37.280Z,99.90
2022-10-13T10:06:40.432Z,99.90
2022-10-13T10:09:49.480Z,99.90
2022-10-13T10:12:51.720Z,99.90
2022-10-13T10:16:09.472Z,99.90
2022-10-13T10:19:19.385Z,99.90
2022-10-13T10:22:48.991Z,99.90
2022-10-13T10:26:06.256Z,99.90
2022-10-13T10:29:29.516Z,99.90
2022-10-13T10:33:04.585Z,99.90
2022-10-13T10:36:19.458Z,99.90
2022-10-13T10:39:34.954Z,99.90
2022-10-13T10:42:51.841Z,99.90
2022-10-13T10:45:59.823Z,99.90
2022-10-13T10:49:34.992Z,99.90
2022-10-13T10:53:07.561Z,99.90
2022-10-13T10:56:32.700Z,99.90
2022-10-13T10:59:53.373Z,99.50
2022-10-13T11:03:16.921Z,98.50
2022-10-13T11:06:18.849Z,95.90
2022-10-13T11:09:41.946Z,96.40
2022-10-13T11:12:53.177Z,97.20
2022-10-13T11:15:55.709Z,97.50
2022-10-13T11:19:07.999Z,97.50
2022-10-13T11:22:18.444Z,97.80
2022-10-13T11:25:41.191Z,97.10
2022-10-13T11:28:43.101Z,97.80
2022-10-13T11:31:52.405Z,97.00
2022-10-13T11:35:06.741Z,97.70
2022-10-13T11:38:33.058Z,97.40
2022-10-13T11:42:03.901Z,97.00
2022-10-13T11:45:37.918Z,96.60
2022-10-13T11:48:58.393Z,96.50
2022-10-13T11:52:55.335Z,96.90
2022-10-13T11:56:01.455Z,96.50
2022-10-13T11:59:03.878Z,96.50
2022-10-13T12:02:11.384Z,96.30
2022-10-13T12:05:25.395Z,96.80
2022-10-13T12:08:29.547Z,96.80
2022-10-13T12:11:36.332Z,97.40
2022-10-13T12:14:43.208Z,97.40
2022-10-13T12:17:45.086Z,97.40
2022-10-13T12:20:56.659Z,96.10
2022-10-13T12:24:08.546Z,96.20
2022-10-13T12:27:45.699Z,96.30
2022-10-13T12:30:58.947Z,97.10
2022-10-13T12:34:02.149Z,97.40
2022-10-13T12:37:27.373Z,97.80
2022-10-13T12:40:29.853Z,98.30
2022-10-13T12:43:31.789Z,98.70
2022-10-13T12:46:42.404Z,98.90
2022-10-13T12:49:44.269Z,99.10
2022-10-13T12:52:46.250Z,99.40
2022-10-13T12:55:59.234Z,99.60
2022-10-13T12:59:01.481Z,99.60
2022-10-13T13:02:18.922Z,99.90
2022-10-13T13:05:31.289Z,99.90
2022-10-13T13:08:33.179Z,99.90
2022-10-13T13:11:38.406Z,99.90
2022-10-13T13:14:48.465Z,99.90
2022-10-13T13:17:58.238Z,99.90
2022-10-13T13:21:02.021Z,99.90
2022-10-13T13:24:07.504Z,99.90
2022-10-13T13:27:25.591Z,99.90
2022-10-13T13:30:27.411Z,99.90
2022-10-13T13:33:29.278Z,99.90
2022-10-13T13:36:31.755Z,99.90
2022-10-13T13:39:33.648Z,99.90
2022-10-13T13:42:35.693Z,99.90
2022-10-13T13:45:37.643Z,99.90
2022-10-13T13:48:39.659Z,99.90
2022-10-13T13:51:41.529Z,99.90
2022-10-13T13:54:43.471Z,99.90
2022-10-13T13:57:45.659Z,99.90
2022-10-13T14:00:48.097Z,99.90
2022-10-13T14:03:50.319Z,99.90
2022-10-13T14:06:53.486Z,99.90
2022-10-13T14:09:57.897Z,99.90
2022-10-13T14:13:03.698Z,99.90
2022-10-13T14:16:05.836Z,99.90
2022-10-13T14:19:08.743Z,99.90
2022-10-13T14:22:10.918Z,99.90
2022-10-13T14:25:13.329Z,99.90
2022-10-13T14:28:18.169Z,99.90
2022-10-13T14:31:20.821Z,99.90
2022-10-13T14:34:23.224Z,99.90
2022-10-13T14:37:27.870Z,99.90
2022-10-13T14:40:33.965Z,99.90
2022-10-13T14:43:35.812Z,99.90
2022-10-13T14:46:37.675Z,99.90
2022-10-13T14:49:39.698Z,99.90
2022-10-13T14:52:41.623Z,99.90
2022-10-13T14:55:44.063Z,99.90
2022-10-13T14:58:46.873Z,99.90
2022-10-13T15:01:49.865Z,99.90
2022-10-13T15:04:52.185Z,99.90
2022-10-13T15:07:54.068Z,99.90
2022-10-13T15:11:04.729Z,99.90
2022-10-13T15:14:07.570Z,99.90
2022-10-13T15:17:09.432Z,99.90
2022-10-13T15:20:11.629Z,99.90
2022-10-13T15:23:14.589Z,99.90
2022-10-13T15:26:19.252Z,99.90
2022-10-13T15:29:21.358Z,99.90
2022-10-13T15:32:23.575Z,99.90
2022-10-13T15:35:29.035Z,99.90
2022-10-13T15:38:31.209Z,99.90
2022-10-13T15:41:33.066Z,99.90
2022-10-13T15:44:57.313Z,99.90
2022-10-13T15:47:57.765Z,99.90
2022-10-13T15:50:59.762Z,99.90
2022-10-13T15:54:01.670Z,99.90
2022-10-13T15:57:03.567Z,99.90
2022-10-13T16:00:07.727Z,99.90
2022-10-13T16:03:18.057Z,99.90
2022-10-13T16:06:22.105Z,99.90
2022-10-13T16:09:23.970Z,99.90
2022-10-13T16:12:27.407Z,99.90
2022-10-13T16:15:30.468Z,99.90
2022-10-13T16:18:36.920Z,99.90
2022-10-13T16:21:38.836Z,99.90
2022-10-13T16:24:40.823Z,99.90
2022-10-13T16:27:44.632Z,99.90
2022-10-13T16:30:46.741Z,99.90
2022-10-13T16:33:48.766Z,99.90
2022-10-13T16:36:50.683Z,99.90
2022-10-13T16:39:52.573Z,99.90
2022-10-13T16:42:54.497Z,99.90
2022-10-13T16:46:00.070Z,99.90
2022-10-13T16:49:02.303Z,99.90
2022-10-13T16:52:05.231Z,99.90
2022-10-13T16:55:07.977Z,99.90
2022-10-13T16:58:09.976Z,99.90
2022-10-13T17:01:12.859Z,99.90
2022-10-13T17:04:18.474Z,99.90
2022-10-13T17:07:24.031Z,99.90
2022-10-13T17:10:26.030Z,99.90
2022-10-13T17:13:28.150Z,99.90
2022-10-13T17:16:30.670Z,99.90
2022-10-13T17:19:32.599Z,99.90
2022-10-13T17:22:34.544Z,99.90
2022-10-13T17:25:36.465Z,99.90
2022-10-13T17:28:39.148Z,99.90
2022-10-13T17:31:41.110Z,99.90
2022-10-13T17:34:42.981Z,99.90
2022-10-13T17:37:44.993Z,99.90
2022-10-13T17:40:46.828Z,99.90
2022-10-13T17:43:50.308Z,99.90
2022-10-13T17:46:52.173Z,99.90
2022-10-13T17:49:55.956Z,99.90
2022-10-13T17:52:57.803Z,99.90
2022-10-13T17:56:01.496Z,99.90
2022-10-13T17:59:03.494Z,99.90
2022-10-13T18:02:05.506Z,99.90
2022-10-13T18:05:07.748Z,99.90
2022-10-13T18:08:09.662Z,99.90
2022-10-13T18:11:15.065Z,99.90
2022-10-13T18:14:17.514Z,99.90
2022-10-13T18:17:19.637Z,99.90
2022-10-13T18:20:21.705Z,99.90
2022-10-13T18:23:23.605Z,99.90
2022-10-13T18:26:26.866Z,99.90
2022-10-13T18:29:28.729Z,99.90
2022-10-13T18:32:30.696Z,99.90
2022-10-13T18:35:32.526Z,99.90
2022-10-13T18:38:34.385Z,99.90
2022-10-13T18:41:37.328Z,99.90
2022-10-13T18:44:39.266Z,99.90
2022-10-13T18:47:42.391Z,99.90
2022-10-13T18:50:44.286Z,99.90
2022-10-13T18:53:48.141Z,99.90
2022-10-13T18:56:50.041Z,99.90
2022-10-13T18:59:51.921Z,99.90
2022-10-13T19:02:53.810Z,99.90
2022-10-13T19:05:56.204Z,99.90
2022-10-13T19:09:01.123Z,99.90
2022-10-13T19:12:03.061Z,99.90
2022-10-13T19:15:05.534Z,99.90
2022-10-13T19:18:08.653Z,99.90
2022-10-13T19:21:11.960Z,99.90
2022-10-13T19:24:13.688Z,99.90
2022-10-13T19:27:15.530Z,99.90
2022-10-13T19:30:17.821Z,99.90
2022-10-13T19:33:20.242Z,99.90
2022-10-13T19:36:28.061Z,99.90
2022-10-13T19:39:30.139Z,99.90
2022-10-13T19:42:32.322Z,99.90
2022-10-13T19:45:34.238Z,99.90
2022-10-13T19:48:36.531Z,99.90
2022-10-13T19:51:39.403Z,99.90
2022-10-13T19:54:41.274Z,99.90
2022-10-13T19:57:43.142Z,99.90
2022-10-13T20:00:46.109Z,99.90
2022-10-13T20:03:48.732Z,99.90
2022-10-13T20:06:51.233Z,99.90
2022-10-13T20:09:53.103Z,99.90
2022-10-13T20:12:54.950Z,99.90
2022-10-13T20:15:56.756Z,99.90
2022-10-13T20:19:02.082Z,99.90
2022-10-13T20:22:04.295Z,99.90
2022-10-13T20:25:08.124Z,99.90
2022-10-13T20:28:10.197Z,99.90
2022-10-13T20:31:14.519Z,99.90
2022-10-13T20:34:16.430Z,99.90
2022-10-13T20:37:18.507Z,99.90
2022-10-13T20:40:20.729Z,99.90
2022-10-13T20:43:25.746Z,99.90
2022-10-13T20:46:29.622Z,99.90
2022-10-13T20:49:31.662Z,99.90
2022-10-13T20:52:33.582Z,99.90
2022-10-13T20:55:39.464Z,99.90
2022-10-13T20:58:44.106Z,99.90
2022-10-13T21:01:46.232Z,99.90
2022-10-13T21:04:48.200Z,99.90
2022-10-13T21:07:50.139Z,99.90
2022-10-13T21:10:52.045Z,99.90
2022-10-13T21:13:53.944Z,99.90
2022-10-13T21:16:56.269Z,99.90
2022-10-13T21:19:58.644Z,99.90
2022-10-13T21:23:01.165Z,99.90
2022-10-13T21:26:04.430Z,99.90
2022-10-13T21:29:06.256Z,99.90
2022-10-13T21:32:08.328Z,99.90
2022-10-13T21:35:10.624Z,99.90
2022-10-13T21:38:13.096Z,99.90
2022-10-13T21:41:15.336Z,99.90
2022-10-13T21:44:17.196Z,99.90
2022-10-13T21:47:19.312Z,99.90
2022-10-13T21:50:21.541Z,99.90
2022-10-13T21:53:23.509Z,99.90
2022-10-13T21:56:26.749Z,99.90
2022-10-13T21:59:28.863Z,99.90
2022-10-13T22:02:30.712Z,99.90
2022-10-13T22:05:32.688Z,99.90
2022-10-13T22:08:39.586Z,99.90
2022-10-13T22:11:42.258Z,99.90
2022-10-13T22:14:44.125Z,99.90
2022-10-13T22:17:45.988Z,99.90
2022-10-13T22:20:47.872Z,99.90
2022-10-13T22:23:49.751Z,99.90
2022-10-13T22:26:51.683Z,99.90
2022-10-13T22:29:53.723Z,99.90
2022-10-13T22:32:55.615Z,99.90
2022-10-13T22:35:57.547Z,99.90
2022-10-13T22:39:02.820Z,99.90
2022-10-13T22:42:04.726Z,99.90
2022-10-13T22:45:07.209Z,99.90
2022-10-13T22:48:11.257Z,99.90
2022-10-13T22:51:16.186Z,99.90
2022-10-13T22:54:18.071Z,99.90
2022-10-13T22:57:21.253Z,99.90
2022-10-13T23:00:23.441Z,99.90
2022-10-13T23:03:25.317Z,99.90
2022-10-13T23:06:30.552Z,99.90
2022-10-13T23:09:32.426Z,99.90
2022-10-13T23:12:34.315Z,99.90
2022-10-13T23:15:38.168Z,99.90
2022-10-13T23:18:40.788Z,99.90
2022-10-13T23:21:42.648Z,99.90
2022-10-13T23:24:44.518Z,99.90
2022-10-13T23:27:46.345Z,99.90
2022-10-13T23:30:48.299Z,99.90
2022-10-13T23:33:50.217Z,99.90
2022-10-13T23:36:52.082Z,99.90
2022-10-13T23:39:53.924Z,99.90
2022-10-13T23:42:55.782Z,99.90
2022-10-13T23:45:57.665Z,99.90
2022-10-13T23:48:59.565Z,99.90
2022-10-13T23:52:01.381Z,99.90
2022-10-13T23:55:03.530Z,99.90
2022-10-13T23:58:06.001Z,99.90
